Cedar Park's Hourly Summary for Tuesday, July 10, 2018
Hour Temp
(f)
RH
(%)
Solar Rad.
(MJ/m2)
Rainfall
(in)
Wind
(mph)
7/10/2018 12:00 AM 71 99 0 0 0.03
7/10/2018 1:00 AM 71 99 0 0 0.03
7/10/2018 2:00 AM 70 100 0 0 0
7/10/2018 3:00 AM 69 100 0 0 0
7/10/2018 4:00 AM 70 100 0 0 0
7/10/2018 5:00 AM 0 0 0 0 0
7/10/2018 6:00 AM 71 100 0 0 0.01
7/10/2018 7:00 AM 72 100 0.22 0 0.02
7/10/2018 8:00 AM 75 99 0.82 0 0.35
7/10/2018 9:00 AM 77 92 1.09 0 1.54
7/10/2018 10:00 AM 80 87 2.19 0 1.54
7/10/2018 11:00 AM 82 72 2.76 0 3.2
7/10/2018 12:00 PM 85 64 2.98 0 3.2
7/10/2018 1:00 PM 86 59 3.25 0 3.77
7/10/2018 2:00 PM 88 55 3.25 0 3.96
7/10/2018 3:00 PM 88 50 3.05 0 3.96
7/10/2018 4:00 PM 89 46 2.47 0 3.57
7/10/2018 5:00 PM 89 47 1.98 0 4.93
7/10/2018 6:00 PM 89 47 1.68 0 4.93
7/10/2018 7:00 PM 88 45 0.55 0 3.81
7/10/2018 8:00 PM 87 54 0.33 0 1.79
7/10/2018 9:00 PM 83 74 0.05 0 0
7/10/2018 10:00 PM 78 74 0 0 0.42
7/10/2018 11:00 PM 78 74 0 0 0.52
Data Summary 76 72 26.67 0.00 1.73